Time;durP1;ratioP1;P1;durP2;ratioP2;P2;SDS_P1;SDS_P2;PMS_P1;PMS_P2;Temp;Humidity;BMP_temperature;BMP_pressure;BME280_temperature;BME280_humidity;BME280_pressure;Samples;Min_cycle;Max_cycle;Signal;HPM_P1;HPM_P2
2023/07/15 00:01:18;;;;;;;5.75;3.42;;;;;;;;;;5122668;27;20047;-62
2023/07/15 00:03:45;;;;;;;4.75;2.58;;;;;;;;;;5122765;27;20060;-60
2023/07/15 00:06:11;;;;;;;5.63;2.85;;;;;;;;;;5126241;27;20062;-60
2023/07/15 00:08:38;;;;;;;9.80;3.00;;;;;;;;;;5125263;27;20588;-62
2023/07/15 00:11:06;;;;;;;3.50;2.70;;;;;;;;;;5126007;27;20570;-63
2023/07/15 00:13:32;;;;;;;7.20;3.30;;;;;;;;;;5117019;27;20563;-61
2023/07/15 00:15:58;;;;;;;7.30;3.20;;;;;;;;;;5121889;27;20520;-63
2023/07/15 00:18:26;;;;;;;5.47;2.88;;;;;;;;;;5125992;27;20051;-63
2023/07/15 00:20:52;;;;;;;7.72;2.75;;;;;;;;;;5124952;27;20445;-60
2023/07/15 00:23:20;;;;;;;6.55;3.00;;;;;;;;;;5124426;27;20063;-62
2023/07/15 00:25:47;;;;;;;3.45;2.60;;;;;;;;;;5125557;27;20079;-63
2023/07/15 00:28:14;;;;;;;5.15;2.92;;;;;;;;;;5125234;27;20505;-63
2023/07/15 00:30:41;;;;;;;3.60;2.33;;;;;;;;;;5125161;27;20047;-63
2023/07/15 00:33:11;;;;;;;4.10;2.63;;;;;;;;;;5106710;27;20047;-62
2023/07/15 00:35:37;;;;;;;6.13;2.58;;;;;;;;;;5126172;27;20204;-63
2023/07/15 00:38:04;;;;;;;3.47;2.45;;;;;;;;;;5125441;27;20056;-62
2023/07/15 00:40:34;;;;;;;5.25;2.17;;;;;;;;;;5125240;27;20055;-62
2023/07/15 00:43:19;;;;;;;5.43;2.45;;;;;;;;;;5124917;27;20043;-62
2023/07/15 00:46:05;;;;;;;6.45;2.40;;;;;;;;;;5125881;27;20062;-61
2023/07/15 00:48:32;;;;;;;3.58;2.40;;;;;;;;;;5105523;28;20052;-60
2023/07/15 00:50:59;;;;;;;3.00;2.13;;;;;;;;;;5122529;27;20139;-63
2023/07/15 00:53:25;;;;;;;9.45;2.67;;;;;;;;;;5124161;27;20435;-63
2023/07/15 00:55:52;;;;;;;3.78;2.25;;;;;;;;;;5125217;27;20159;-61
2023/07/15 00:58:18;;;;;;;3.63;2.35;;;;;;;;;;5125957;27;20052;-63
2023/07/15 01:00:44;;;;;;;4.35;2.20;;;;;;;;;;5123813;27;20048;-64
2023/07/15 01:03:11;;;;;;;5.80;2.15;;;;;;;;;;5124238;27;20058;-62
2023/07/15 01:05:38;;;;;;;2.72;2.10;;;;;;;;;;5125159;27;20083;-61
2023/07/15 01:08:04;;;;;;;5.43;2.30;;;;;;;;;;5123958;27;20468;-62
2023/07/15 01:10:31;;;;;;;2.40;2.20;;;;;;;;;;5124446;27;20104;-63
2023/07/15 01:12:57;;;;;;;2.88;1.83;;;;;;;;;;5124518;27;20059;-64
2023/07/15 01:15:24;;;;;;;4.25;2.03;;;;;;;;;;5124638;27;20055;-63
2023/07/15 01:17:50;;;;;;;3.83;2.13;;;;;;;;;;5124835;27;20105;-63
2023/07/15 01:20:17;;;;;;;3.92;2.90;;;;;;;;;;5125793;27;20054;-61
2023/07/15 01:22:43;;;;;;;3.20;2.00;;;;;;;;;;5123921;27;20048;-61
2023/07/15 01:25:10;;;;;;;2.72;2.03;;;;;;;;;;5124283;27;20422;-62
2023/07/15 01:27:36;;;;;;;2.38;2.15;;;;;;;;;;5125005;27;20052;-60
2023/07/15 01:30:03;;;;;;;4.18;2.15;;;;;;;;;;5124699;27;20139;-62
2023/07/15 01:32:29;;;;;;;2.80;2.15;;;;;;;;;;5124752;27;20425;-63
2023/07/15 01:34:56;;;;;;;5.38;2.08;;;;;;;;;;5119406;27;20782;-63
2023/07/15 01:37:23;;;;;;;1.88;1.73;;;;;;;;;;5124213;27;20067;-63
2023/07/15 01:39:49;;;;;;;7.03;2.00;;;;;;;;;;5124788;27;20052;-62
2023/07/15 01:42:16;;;;;;;5.55;2.25;;;;;;;;;;5124241;27;20406;-62
2023/07/15 01:44:43;;;;;;;3.45;1.90;;;;;;;;;;5105274;27;20055;-61
2023/07/15 01:47:10;;;;;;;6.50;2.10;;;;;;;;;;5123951;27;20109;-62
2023/07/15 01:49:37;;;;;;;14.50;1.90;;;;;;;;;;5123736;27;20051;-62
2023/07/15 01:52:03;;;;;;;3.75;1.83;;;;;;;;;;5124276;27;20520;-63
2023/07/15 01:54:30;;;;;;;2.33;1.70;;;;;;;;;;5104495;27;20667;-61
2023/07/15 01:56:56;;;;;;;4.43;1.88;;;;;;;;;;5124296;27;20502;-63
2023/07/15 01:59:22;;;;;;;7.65;1.90;;;;;;;;;;5124410;27;20126;-62
2023/07/15 02:01:49;;;;;;;2.40;1.98;;;;;;;;;;5123946;27;20650;-62
2023/07/15 02:04:16;;;;;;;3.67;1.88;;;;;;;;;;5120524;27;20052;-64
2023/07/15 02:06:42;;;;;;;3.65;1.98;;;;;;;;;;5116610;27;20109;-63
2023/07/15 02:09:09;;;;;;;4.03;1.98;;;;;;;;;;5123468;27;20515;-61
2023/07/15 02:11:35;;;;;;;4.75;2.17;;;;;;;;;;5123880;27;20292;-61
2023/07/15 02:14:02;;;;;;;3.67;1.90;;;;;;;;;;5123769;27;20055;-63
2023/07/15 02:16:29;;;;;;;3.08;1.75;;;;;;;;;;5124515;27;20052;-64
2023/07/15 02:18:55;;;;;;;1.92;1.67;;;;;;;;;;5124001;27;20130;-62
2023/07/15 02:21:24;;;;;;;3.63;2.13;;;;;;;;;;5123331;27;20059;-61
2023/07/15 02:23:52;;;;;;;2.45;2.00;;;;;;;;;;5122946;27;20056;-63
2023/07/15 02:26:18;;;;;;;4.28;2.08;;;;;;;;;;5122756;27;20141;-62
2023/07/15 02:28:45;;;;;;;4.55;2.15;;;;;;;;;;5123617;27;20052;-63
2023/07/15 02:31:11;;;;;;;8.57;2.08;;;;;;;;;;5104716;27;20078;-63
2023/07/15 02:33:38;;;;;;;4.47;3.35;;;;;;;;;;5123507;27;20048;-60
2023/07/15 02:36:05;;;;;;;4.40;2.03;;;;;;;;;;5123546;27;20055;-63
2023/07/15 02:38:31;;;;;;;2.30;1.92;;;;;;;;;;5122946;27;20047;-63
2023/07/15 02:40:57;;;;;;;4.28;2.10;;;;;;;;;;5115420;27;20147;-63
2023/07/15 02:43:24;;;;;;;6.25;2.15;;;;;;;;;;5123353;27;20550;-61
2023/07/15 02:45:51;;;;;;;3.50;2.17;;;;;;;;;;5123758;27;20538;-64
2023/07/15 02:48:19;;;;;;;6.90;2.17;;;;;;;;;;5123309;27;20078;-63
2023/07/15 02:50:55;;;;;;;3.85;2.03;;;;;;;;;;5122241;27;20574;-63
2023/07/15 02:53:22;;;;;;;3.92;2.10;;;;;;;;;;5123665;27;20321;-64
2023/07/15 02:55:50;;;;;;;2.28;1.83;;;;;;;;;;5123449;27;20077;-63
2023/07/15 02:58:19;;;;;;;3.92;1.95;;;;;;;;;;5123872;27;20131;-63
2023/07/15 03:00:47;;;;;;;5.10;2.25;;;;;;;;;;5122382;27;20576;-64
2023/07/15 03:03:14;;;;;;;3.15;2.05;;;;;;;;;;5130985;27;20299;-61
2023/07/15 03:05:44;;;;;;;3.15;2.25;;;;;;;;;;5121968;27;20056;-63
2023/07/15 03:08:11;;;;;;;7.63;2.30;;;;;;;;;;5123700;27;20659;-64
2023/07/15 03:10:37;;;;;;;10.25;2.58;;;;;;;;;;5122935;27;20505;-61
2023/07/15 03:13:04;;;;;;;4.82;2.35;;;;;;;;;;5122957;27;20139;-63
2023/07/15 03:15:30;;;;;;;3.00;2.13;;;;;;;;;;5121519;27;20056;-64
2023/07/15 03:17:57;;;;;;;4.10;2.15;;;;;;;;;;5123607;27;20056;-62
2023/07/15 03:20:25;;;;;;;3.67;2.22;;;;;;;;;;5122279;27;20444;-64
2023/07/15 03:22:51;;;;;;;2.75;1.90;;;;;;;;;;5123200;27;20618;-60
2023/07/15 03:25:21;;;;;;;3.53;2.30;;;;;;;;;;5122091;27;20058;-62
2023/07/15 03:27:48;;;;;;;3.17;2.30;;;;;;;;;;5122946;27;20069;-62
2023/07/15 03:30:15;;;;;;;4.93;3.08;;;;;;;;;;5112758;27;20494;-64
2023/07/15 03:32:42;;;;;;;4.32;2.05;;;;;;;;;;5122510;27;20138;-63
2023/07/15 03:35:09;;;;;;;2.85;2.20;;;;;;;;;;5122097;27;20097;-63
2023/07/15 03:37:39;;;;;;;7.65;2.47;;;;;;;;;;5124157;27;20388;-61
2023/07/15 03:40:07;;;;;;;6.28;2.72;;;;;;;;;;5126989;27;20395;-63
2023/07/15 03:42:35;;;;;;;6.32;2.10;;;;;;;;;;5126601;27;20127;-63
2023/07/15 03:45:03;;;;;;;6.93;3.00;;;;;;;;;;5124814;27;20055;-64
2023/07/15 03:47:29;;;;;;;4.93;2.47;;;;;;;;;;5125278;27;20500;-63
2023/07/15 03:49:56;;;;;;;3.55;2.28;;;;;;;;;;5127316;27;20050;-61
2023/07/15 03:52:22;;;;;;;6.20;2.70;;;;;;;;;;5125631;27;20394;-62
2023/07/15 03:54:48;;;;;;;6.85;2.50;;;;;;;;;;5125082;27;20566;-64
2023/07/15 03:57:15;;;;;;;6.50;2.20;;;;;;;;;;5126348;27;20052;-61
2023/07/15 03:59:41;;;;;;;11.80;2.83;;;;;;;;;;5125574;27;20083;-61
2023/07/15 04:02:08;;;;;;;5.28;2.40;;;;;;;;;;5126391;27;20052;-63
2023/07/15 04:04:34;;;;;;;3.97;3.08;;;;;;;;;;5125070;27;20130;-63
2023/07/15 04:07:01;;;;;;;4.57;2.45;;;;;;;;;;5126033;27;20132;-63
2023/07/15 04:09:28;;;;;;;8.80;2.67;;;;;;;;;;5125514;27;20186;-61
2023/07/15 04:11:54;;;;;;;4.93;2.35;;;;;;;;;;5126874;27;20148;-63
2023/07/15 04:14:21;;;;;;;5.53;2.60;;;;;;;;;;5125564;27;20059;-63
2023/07/15 04:16:47;;;;;;;3.80;2.55;;;;;;;;;;5124985;27;20048;-61
2023/07/15 04:19:14;;;;;;;4.35;2.15;;;;;;;;;;5125814;27;20091;-62
2023/07/15 04:21:41;;;;;;;2.53;2.17;;;;;;;;;;5125609;27;20052;-62
2023/07/15 04:24:07;;;;;;;6.28;2.42;;;;;;;;;;5124927;27;20055;-63
2023/07/15 04:26:34;;;;;;;4.90;2.55;;;;;;;;;;5125416;27;20051;-62
2023/07/15 04:29:00;;;;;;;5.43;2.28;;;;;;;;;;5122253;27;20060;-63
2023/07/15 04:31:27;;;;;;;3.13;1.92;;;;;;;;;;5121704;27;20055;-64
2023/07/15 04:33:53;;;;;;;4.65;2.55;;;;;;;;;;5125006;27;20154;-60
2023/07/15 04:36:21;;;;;;;3.90;2.33;;;;;;;;;;5124314;27;20524;-63
2023/07/15 04:38:47;;;;;;;8.88;2.20;;;;;;;;;;5106624;27;20179;-63
2023/07/15 04:41:14;;;;;;;3.85;2.20;;;;;;;;;;5124439;27;20059;-63
2023/07/15 04:43:41;;;;;;;3.92;2.15;;;;;;;;;;5124410;27;20138;-62
2023/07/15 04:46:07;;;;;;;4.93;2.47;;;;;;;;;;5103852;27;20518;-63
2023/07/15 04:48:34;;;;;;;4.53;2.35;;;;;;;;;;5124632;27;20047;-62
2023/07/15 04:51:01;;;;;;;4.70;2.45;;;;;;;;;;5124341;27;20055;-62
2023/07/15 04:53:27;;;;;;;4.63;2.00;;;;;;;;;;5126297;27;20083;-64
2023/07/15 04:55:54;;;;;;;5.80;2.20;;;;;;;;;;5106894;27;20138;-64
2023/07/15 04:58:20;;;;;;;2.00;1.90;;;;;;;;;;5125196;27;20080;-60
2023/07/15 05:00:50;;;;;;;3.40;2.40;;;;;;;;;;5122450;27;20498;-63
2023/07/15 05:03:17;;;;;;;5.80;1.92;;;;;;;;;;5127602;27;20491;-63
2023/07/15 05:05:46;;;;;;;3.75;2.00;;;;;;;;;;5118098;27;20047;-61
2023/07/15 05:08:16;;;;;;;2.42;1.73;;;;;;;;;;5124577;27;20086;-62
2023/07/15 05:10:45;;;;;;;2.75;1.80;;;;;;;;;;5122956;27;20316;-63
2023/07/15 05:13:12;;;;;;;3.42;1.83;;;;;;;;;;5124981;27;20317;-63
2023/07/15 05:15:39;;;;;;;6.10;2.13;;;;;;;;;;5125825;27;20646;-62
2023/07/15 05:18:08;;;;;;;3.92;2.08;;;;;;;;;;5120515;27;20048;-63
2023/07/15 05:20:35;;;;;;;5.00;1.98;;;;;;;;;;5117674;27;20055;-63
2023/07/15 05:23:03;;;;;;;3.28;2.25;;;;;;;;;;5125032;27;20054;-62
2023/07/15 05:25:30;;;;;;;2.70;2.20;;;;;;;;;;5123266;27;20604;-63
2023/07/15 05:27:56;;;;;;;8.02;2.75;;;;;;;;;;5111719;27;20949;-60
2023/07/15 05:30:23;;;;;;;4.47;2.70;;;;;;;;;;5120632;27;20048;-61
2023/07/15 05:32:50;;;;;;;5.03;2.53;;;;;;;;;;5122934;27;20843;-62
2023/07/15 05:35:16;;;;;;;4.40;2.20;;;;;;;;;;5123579;27;20413;-63
2023/07/15 05:37:43;;;;;;;6.10;2.10;;;;;;;;;;5125805;27;20587;-61
2023/07/15 05:40:10;;;;;;;5.28;2.03;;;;;;;;;;5116831;27;20371;-62
2023/07/15 05:42:37;;;;;;;3.92;2.00;;;;;;;;;;5119771;27;20063;-62
2023/07/15 05:45:05;;;;;;;4.72;2.42;;;;;;;;;;5122049;27;20051;-62
2023/07/15 05:47:31;;;;;;;3.55;2.40;;;;;;;;;;5123452;27;20521;-63
2023/07/15 05:49:57;;;;;;;6.38;2.65;;;;;;;;;;5121886;27;20047;-63
2023/07/15 05:52:24;;;;;;;4.00;1.83;;;;;;;;;;5110512;27;20080;-62
2023/07/15 05:54:50;;;;;;;5.97;2.38;;;;;;;;;;5116928;27;20139;-63
2023/07/15 05:57:17;;;;;;;3.97;2.28;;;;;;;;;;5122189;27;20052;-63
2023/07/15 05:59:45;;;;;;;5.93;2.40;;;;;;;;;;5123228;27;20055;-63
2023/07/15 06:02:11;;;;;;;3.75;2.15;;;;;;;;;;5121207;27;20174;-63
2023/07/15 06:04:37;;;;;;;5.82;3.28;;;;;;;;;;5123065;27;20475;-62
2023/07/15 06:07:04;;;;;;;5.50;2.45;;;;;;;;;;5112551;27;20533;-63
2023/07/15 06:09:31;;;;;;;6.22;1.98;;;;;;;;;;5101214;27;20761;-61
2023/07/15 06:11:57;;;;;;;4.90;2.25;;;;;;;;;;5122078;27;20055;-63
2023/07/15 06:14:24;;;;;;;8.00;2.88;;;;;;;;;;5122024;27;20650;-63
2023/07/15 06:16:52;;;;;;;4.50;2.17;;;;;;;;;;5112266;27;20197;-63
2023/07/15 06:19:18;;;;;;;13.88;2.30;;;;;;;;;;5124022;27;20128;-61
2023/07/15 06:21:46;;;;;;;2.45;1.73;;;;;;;;;;5119457;27;20056;-64
2023/07/15 06:24:13;;;;;;;2.70;1.90;;;;;;;;;;5110456;27;20052;-62
2023/07/15 06:26:39;;;;;;;4.53;2.65;;;;;;;;;;5121068;27;20509;-60
2023/07/15 06:29:06;;;;;;;9.40;2.30;;;;;;;;;;5133443;27;20120;-62
2023/07/15 06:31:32;;;;;;;5.03;2.67;;;;;;;;;;5124308;27;20063;-62
2023/07/15 06:33:59;;;;;;;3.45;2.15;;;;;;;;;;5126061;27;20058;-63
2023/07/15 06:36:25;;;;;;;3.20;1.70;;;;;;;;;;5122989;27;20082;-62
2023/07/15 06:38:52;;;;;;;2.30;1.88;;;;;;;;;;5123524;27;20052;-61
2023/07/15 06:41:18;;;;;;;3.20;1.80;;;;;;;;;;5123958;27;20051;-63
2023/07/15 06:43:45;;;;;;;4.05;1.60;;;;;;;;;;5113429;27;20063;-62
2023/07/15 06:46:11;;;;;;;2.55;1.35;;;;;;;;;;5120691;27;20565;-61
2023/07/15 06:48:38;;;;;;;2.70;1.52;;;;;;;;;;5123750;27;20051;-61
2023/07/15 06:51:05;;;;;;;2.03;1.42;;;;;;;;;;5124507;27;20144;-63
2023/07/15 06:53:31;;;;;;;2.58;1.48;;;;;;;;;;5107041;27;20062;-61
2023/07/15 06:55:58;;;;;;;1.33;1.20;;;;;;;;;;5121270;27;20105;-61
2023/07/15 06:58:43;;;;;;;;;;;;;;;;;;5136926;27;20051;-61
2023/07/15 07:01:10;;;;;;;2.35;1.60;;;;;;;;;;5121758;27;42772;-63
2023/07/15 07:03:37;;;;;;;2.20;1.40;;;;;;;;;;5120969;27;20175;-61
2023/07/15 07:06:04;;;;;;;1.42;1.00;;;;;;;;;;5106982;27;20503;-61
2023/07/15 07:08:31;;;;;;;1.88;1.60;;;;;;;;;;5115227;27;20059;-62
2023/07/15 07:10:57;;;;;;;3.92;1.40;;;;;;;;;;5121724;27;20054;-62
2023/07/15 07:13:24;;;;;;;1.67;1.45;;;;;;;;;;5120404;27;20140;-62
2023/07/15 07:15:50;;;;;;;3.92;1.30;;;;;;;;;;5122704;27;20055;-63
2023/07/15 07:18:16;;;;;;;2.10;1.30;;;;;;;;;;5123008;27;20055;-62
2023/07/15 07:20:43;;;;;;;2.72;1.33;;;;;;;;;;5123170;27;20473;-62
2023/07/15 07:23:10;;;;;;;2.78;1.35;;;;;;;;;;5121050;27;20051;-60
2023/07/15 07:25:36;;;;;;;1.42;1.00;;;;;;;;;;5121978;27;20093;-60
2023/07/15 07:28:02;;;;;;;1.77;1.00;;;;;;;;;;5123174;27;20051;-62
2023/07/15 07:30:29;;;;;;;1.58;1.27;;;;;;;;;;5121767;27;20402;-63
2023/07/15 07:32:55;;;;;;;1.67;1.48;;;;;;;;;;5138446;27;20056;-63
2023/07/15 07:35:22;;;;;;;3.30;1.45;;;;;;;;;;5114581;27;20060;-60
2023/07/15 07:37:49;;;;;;;1.73;1.50;;;;;;;;;;5098636;27;20055;-64
2023/07/15 07:40:15;;;;;;;3.78;2.42;;;;;;;;;;5120686;27;20138;-64
2023/07/15 07:42:41;;;;;;;3.92;2.38;;;;;;;;;;5123024;27;20059;-61
2023/07/15 07:45:11;;;;;;;3.17;1.60;;;;;;;;;;5123404;27;20140;-61
2023/07/15 07:47:38;;;;;;;2.08;1.73;;;;;;;;;;5121396;27;20047;-63
2023/07/15 07:50:05;;;;;;;2.00;1.38;;;;;;;;;;5122486;27;20054;-63
2023/07/15 07:52:32;;;;;;;2.35;1.50;;;;;;;;;;5120695;27;20146;-59
2023/07/15 07:54:59;;;;;;;1.83;1.33;;;;;;;;;;5119757;27;20257;-61
2023/07/15 07:57:25;;;;;;;2.00;1.48;;;;;;;;;;5115634;27;20496;-62
2023/07/15 07:59:51;;;;;;;3.90;1.60;;;;;;;;;;5122815;27;20055;-62
2023/07/15 08:02:18;;;;;;;2.20;1.85;;;;;;;;;;5117432;27;20083;-61
2023/07/15 08:04:48;;;;;;;2.53;1.88;;;;;;;;;;5119512;27;20054;-62
2023/07/15 08:07:14;;;;;;;5.18;2.00;;;;;;;;;;5122729;27;20178;-64
2023/07/15 08:09:40;;;;;;;3.17;2.30;;;;;;;;;;5120202;27;20510;-64
2023/07/15 08:12:10;;;;;;;2.47;2.00;;;;;;;;;;5077824;27;20671;-62
2023/07/15 08:14:36;;;;;;;3.67;1.70;;;;;;;;;;5116654;27;20553;-61
2023/07/15 08:17:03;;;;;;;3.20;2.00;;;;;;;;;;5121007;27;20421;-60
2023/07/15 08:19:29;;;;;;;2.53;1.73;;;;;;;;;;5118005;27;20052;-62
2023/07/15 08:21:56;;;;;;;2.72;2.10;;;;;;;;;;5113428;27;20051;-61
2023/07/15 08:24:22;;;;;;;3.92;2.22;;;;;;;;;;5111341;27;20091;-63
2023/07/15 08:26:49;;;;;;;4.22;2.72;;;;;;;;;;5117330;27;20525;-61
2023/07/15 08:29:15;;;;;;;3.13;1.92;;;;;;;;;;5121710;27;20056;-59
2023/07/15 08:31:41;;;;;;;2.92;2.60;;;;;;;;;;5096832;27;20079;-64
2023/07/15 08:34:08;;;;;;;3.20;2.55;;;;;;;;;;5120362;27;20520;-63
2023/07/15 08:36:36;;;;;;;2.72;2.15;;;;;;;;;;5117854;27;20059;-63
2023/07/15 08:39:02;;;;;;;5.50;2.58;;;;;;;;;;5120929;27;20649;-62
2023/07/15 08:41:29;;;;;;;4.15;2.60;;;;;;;;;;5123169;27;20055;-61
2023/07/15 08:43:55;;;;;;;3.78;2.70;;;;;;;;;;5104932;27;20071;-63
2023/07/15 08:46:26;;;;;;;2.75;2.10;;;;;;;;;;5117533;27;20063;-62
2023/07/15 08:48:53;;;;;;;2.78;2.58;;;;;;;;;;5116512;27;20591;-64
2023/07/15 08:51:25;;;;;;;3.65;2.38;;;;;;;;;;5120938;27;20113;-64
2023/07/15 08:53:52;;;;;;;4.00;2.30;;;;;;;;;;5121628;27;20067;-64
2023/07/15 08:56:20;;;;;;;4.60;2.17;;;;;;;;;;5123438;27;20509;-64
2023/07/15 08:58:47;;;;;;;3.38;2.47;;;;;;;;;;5120274;27;20054;-63
2023/07/15 09:01:14;;;;;;;4.95;2.20;;;;;;;;;;5125149;27;20582;-65
2023/07/15 09:03:41;;;;;;;2.35;1.90;;;;;;;;;;5124256;27;20137;-64
2023/07/15 09:06:08;;;;;;;3.72;3.03;;;;;;;;;;5124221;27;20127;-62
2023/07/15 09:08:35;;;;;;;2.05;1.85;;;;;;;;;;5121342;27;20056;-63
2023/07/15 09:11:03;;;;;;;3.75;2.42;;;;;;;;;;5122173;27;20525;-64
2023/07/15 09:13:31;;;;;;;3.92;2.35;;;;;;;;;;5122820;27;20501;-61
2023/07/15 09:15:58;;;;;;;4.97;1.90;;;;;;;;;;5123171;27;20056;-64
2023/07/15 09:18:24;;;;;;;3.33;2.20;;;;;;;;;;5104428;27;20055;-62
2023/07/15 09:21:05;;;;;;;1.63;1.52;;;;;;;;;;5122738;27;20509;-62
2023/07/15 09:23:32;;;;;;;3.80;1.75;;;;;;;;;;5120921;27;20060;-62
2023/07/15 09:26:00;;;;;;;2.63;1.90;;;;;;;;;;5122586;27;20504;-62
2023/07/15 09:28:26;;;;;;;5.82;2.50;;;;;;;;;;5120265;27;20048;-63
2023/07/15 09:30:53;;;;;;;4.28;2.65;;;;;;;;;;5112743;27;20543;-63
2023/07/15 09:33:26;;;;;;;3.38;2.15;;;;;;;;;;5116179;27;20064;-63
2023/07/15 09:35:53;;;;;;;2.20;2.00;;;;;;;;;;5119912;27;20056;-64
2023/07/15 09:38:20;;;;;;;2.08;1.88;;;;;;;;;;5123913;27;20059;-64
2023/07/15 09:40:49;;;;;;;2.40;2.08;;;;;;;;;;5121329;27;20498;-64
2023/07/15 09:43:16;;;;;;;5.93;2.40;;;;;;;;;;5121554;27;20134;-61
2023/07/15 09:45:42;;;;;;;2.22;2.03;;;;;;;;;;5123393;27;20047;-62
2023/07/15 09:48:09;;;;;;;3.35;2.17;;;;;;;;;;5123485;27;20083;-65
2023/07/15 09:50:37;;;;;;;3.47;2.20;;;;;;;;;;5119412;27;20075;-63
2023/07/15 09:53:04;;;;;;;3.17;2.17;;;;;;;;;;5115023;27;20113;-64
2023/07/15 09:55:32;;;;;;;3.08;2.15;;;;;;;;;;5121328;27;20113;-65
2023/07/15 09:58:14;;;;;;;2.30;1.63;;;;;;;;;;5124549;27;20100;-62
2023/07/15 10:00:45;;;;;;;2.60;1.83;;;;;;;;;;5118768;27;20590;-64
2023/07/15 10:03:17;;;;;;;4.13;1.95;;;;;;;;;;5117228;27;20055;-61
2023/07/15 10:05:44;;;;;;;2.55;2.20;;;;;;;;;;5120785;27;20182;-62
2023/07/15 10:08:11;;;;;;;2.20;1.90;;;;;;;;;;5122547;27;20091;-63
2023/07/15 10:10:38;;;;;;;4.65;2.00;;;;;;;;;;5117966;27;20138;-62
2023/07/15 10:13:05;;;;;;;2.83;2.28;;;;;;;;;;5105962;27;20055;-60
2023/07/15 10:15:31;;;;;;;5.07;2.70;;;;;;;;;;5115430;27;20587;-63
2023/07/15 10:18:09;;;;;;;3.00;1.95;;;;;;;;;;5117327;27;20206;-62
2023/07/15 10:20:36;;;;;;;2.35;1.80;;;;;;;;;;5119902;27;20058;-62
2023/07/15 10:23:02;;;;;;;3.60;1.85;;;;;;;;;;5118543;27;20051;-59
2023/07/15 10:25:29;;;;;;;2.33;1.73;;;;;;;;;;5121374;27;20918;-62
2023/07/15 10:28:08;;;;;;;4.50;1.75;;;;;;;;;;5120471;27;20113;-61
2023/07/15 10:30:35;;;;;;;4.60;2.00;;;;;;;;;;5113643;27;20052;-62
2023/07/15 10:33:03;;;;;;;2.92;2.10;;;;;;;;;;5115696;27;20047;-62
2023/07/15 10:35:39;;;;;;;3.85;2.47;;;;;;;;;;5103690;27;20336;-62
2023/07/15 10:38:21;;;;;;;2.10;1.90;;;;;;;;;;5120840;27;20055;-62
2023/07/15 10:40:49;;;;;;;4.40;1.63;;;;;;;;;;5114906;27;20078;-62
2023/07/15 10:43:21;;;;;;;4.47;2.03;;;;;;;;;;5113042;27;20439;-61
2023/07/15 10:45:55;;;;;;;2.30;1.60;;;;;;;;;;5113128;27;20079;-63
2023/07/15 10:48:22;;;;;;;5.72;2.22;;;;;;;;;;5113007;27;20536;-64
2023/07/15 10:50:52;;;;;;;2.55;1.70;;;;;;;;;;5115076;27;20055;-63
2023/07/15 10:53:29;;;;;;;3.38;2.00;;;;;;;;;;5113610;27;20066;-62
2023/07/15 10:55:57;;;;;;;4.30;1.90;;;;;;;;;;5120534;27;20056;-63
2023/07/15 10:58:24;;;;;;;2.90;1.70;;;;;;;;;;5114900;27;20210;-62
2023/07/15 11:00:51;;;;;;;1.73;1.48;;;;;;;;;;5112845;27;20589;-63
2023/07/15 11:03:19;;;;;;;3.65;1.45;;;;;;;;;;5112827;27;20581;-62
2023/07/15 11:05:46;;;;;;;3.70;2.08;;;;;;;;;;5111859;27;20059;-63
2023/07/15 11:08:12;;;;;;;3.58;1.50;;;;;;;;;;5123441;27;20134;-65
2023/07/15 11:10:39;;;;;;;3.55;2.22;;;;;;;;;;5122377;27;20109;-62
2023/07/15 11:13:15;;;;;;;6.43;1.95;;;;;;;;;;5119991;27;20139;-63
2023/07/15 11:15:43;;;;;;;3.80;1.52;;;;;;;;;;5113166;27;20079;-65
2023/07/15 11:18:19;;;;;;;2.80;1.60;;;;;;;;;;5119617;27;20139;-62
2023/07/15 11:20:46;;;;;;;3.88;1.80;;;;;;;;;;5118862;27;20067;-63
2023/07/15 11:23:13;;;;;;;4.15;1.73;;;;;;;;;;5119903;27;20142;-63
2023/07/15 11:25:43;;;;;;;2.28;1.88;;;;;;;;;;5120571;27;20054;-65
2023/07/15 11:28:10;;;;;;;3.80;1.50;;;;;;;;;;5119889;27;20060;-63
2023/07/15 11:30:41;;;;;;;2.80;2.00;;;;;;;;;;5109484;27;20055;-63
2023/07/15 11:33:08;;;;;;;2.33;1.63;;;;;;;;;;5110726;27;20055;-62
2023/07/15 11:35:35;;;;;;;4.03;1.70;;;;;;;;;;5122269;27;20169;-62
2023/07/15 11:38:06;;;;;;;1.75;1.60;;;;;;;;;;5123287;27;20487;-62
2023/07/15 11:40:52;;;;;;;2.83;2.20;;;;;;;;;;5109006;27;20118;-62
2023/07/15 11:43:20;;;;;;;4.13;2.00;;;;;;;;;;5120660;27;20055;-62
2023/07/15 11:45:52;;;;;;;2.83;1.60;;;;;;;;;;5121720;27;20835;-62
2023/07/15 11:48:20;;;;;;;2.65;1.60;;;;;;;;;;5103907;27;20064;-63
2023/07/15 11:50:47;;;;;;;3.40;1.88;;;;;;;;;;5121161;27;20443;-64
2023/07/15 11:53:29;;;;;;;4.35;2.05;;;;;;;;;;5120760;27;20134;-64
2023/07/15 11:55:56;;;;;;;3.33;1.50;;;;;;;;;;5122484;27;20154;-63
2023/07/15 11:58:55;;;;;;;4.60;1.70;;;;;;;;;;5122756;27;20568;-63
2023/07/15 12:01:25;;;;;;;5.78;1.90;;;;;;;;;;5067992;27;20055;-62
2023/07/15 12:03:52;;;;;;;4.72;2.10;;;;;;;;;;5124922;27;20469;-64
2023/07/15 12:06:20;;;;;;;4.30;1.55;;;;;;;;;;5125022;27;20514;-63
2023/07/15 12:09:00;;;;;;;4.10;1.70;;;;;;;;;;5125641;27;20058;-63
2023/07/15 12:11:27;;;;;;;2.08;1.83;;;;;;;;;;5126089;27;20637;-62
2023/07/15 12:13:53;;;;;;;5.28;1.95;;;;;;;;;;5110825;27;20502;-63
2023/07/15 12:16:20;;;;;;;7.05;1.80;;;;;;;;;;5123573;27;20146;-62
2023/07/15 12:18:47;;;;;;;4.93;1.90;;;;;;;;;;5126147;27;20052;-63
2023/07/15 12:21:13;;;;;;;2.25;1.60;;;;;;;;;;5122709;27;20578;-61
2023/07/15 12:23:41;;;;;;;6.10;2.40;;;;;;;;;;5115219;27;20529;-62
2023/07/15 12:26:08;;;;;;;5.18;1.83;;;;;;;;;;5118292;27;20526;-63
2023/07/15 12:28:35;;;;;;;4.93;2.60;;;;;;;;;;5125494;27;20597;-63
2023/07/15 12:31:01;;;;;;;2.42;1.50;;;;;;;;;;5106461;27;20109;-64
2023/07/15 12:33:28;;;;;;;3.33;1.80;;;;;;;;;;5126600;27;20048;-61
2023/07/15 12:35:55;;;;;;;2.80;1.90;;;;;;;;;;5123198;27;20062;-62
2023/07/15 12:38:21;;;;;;;1.58;1.40;;;;;;;;;;5122903;27;20058;-63
2023/07/15 12:40:48;;;;;;;2.28;1.70;;;;;;;;;;5114251;27;20137;-63
2023/07/15 12:43:20;;;;;;;6.22;1.67;;;;;;;;;;5123786;27;20156;-63
2023/07/15 12:45:47;;;;;;;1.95;1.50;;;;;;;;;;5124853;27;20139;-63
2023/07/15 12:48:13;;;;;;;1.90;1.55;;;;;;;;;;5124416;27;20101;-62
2023/07/15 12:50:39;;;;;;;2.28;1.48;;;;;;;;;;5125457;27;20052;-62
2023/07/15 12:53:06;;;;;;;3.30;2.00;;;;;;;;;;5126133;27;20051;-62
2023/07/15 12:55:32;;;;;;;1.65;1.40;;;;;;;;;;5113864;27;20062;-61
2023/07/15 12:57:59;;;;;;;6.88;1.83;;;;;;;;;;5123386;27;20134;-62
2023/07/15 13:00:25;;;;;;;2.28;1.42;;;;;;;;;;5107775;27;20048;-61
2023/07/15 13:02:52;;;;;;;4.40;1.60;;;;;;;;;;5125913;27;20137;-62
2023/07/15 13:05:18;;;;;;;4.57;2.60;;;;;;;;;;5119539;27;20054;-62
2023/07/15 13:07:45;;;;;;;3.22;1.58;;;;;;;;;;5124561;27;20075;-62
2023/07/15 13:10:11;;;;;;;3.05;1.45;;;;;;;;;;5122895;27;20059;-64
2023/07/15 13:12:38;;;;;;;2.20;1.55;;;;;;;;;;5124652;27;20048;-61
2023/07/15 13:15:05;;;;;;;2.40;1.50;;;;;;;;;;5132246;27;20112;-63
2023/07/15 13:17:31;;;;;;;5.88;1.60;;;;;;;;;;5126344;27;20148;-62
2023/07/15 13:19:58;;;;;;;5.38;1.52;;;;;;;;;;5118530;27;20048;-64
2023/07/15 13:22:24;;;;;;;7.00;1.52;;;;;;;;;;5125004;27;20119;-62
2023/07/15 13:24:51;;;;;;;3.20;1.40;;;;;;;;;;5121367;27;20064;-62
2023/07/15 13:27:17;;;;;;;2.70;1.20;;;;;;;;;;5119645;27;20079;-62
2023/07/15 13:29:44;;;;;;;5.30;1.10;;;;;;;;;;5116220;27;20148;-63
2023/07/15 13:32:10;;;;;;;3.22;1.27;;;;;;;;;;5123263;27;20051;-61
2023/07/15 13:34:37;;;;;;;3.05;1.40;;;;;;;;;;5124001;27;20148;-62
2023/07/15 14:08:46;;;;;;;11.80;3.05;;;;;;;;;;5121147;27;20893;-55
2023/07/15 14:11:13;;;;;;;3.00;1.92;;;;;;;;;;5119024;27;20097;-55
2023/07/15 14:13:39;;;;;;;1.75;1.60;;;;;;;;;;5117977;27;20134;-56
2023/07/15 14:16:06;;;;;;;8.23;1.50;;;;;;;;;;5127328;27;20056;-56
2023/07/15 14:18:33;;;;;;;5.72;1.58;;;;;;;;;;5120092;27;20051;-52
2023/07/15 14:20:59;;;;;;;1.60;1.50;;;;;;;;;;5118028;27;20056;-56
2023/07/15 14:23:26;;;;;;;2.95;1.30;;;;;;;;;;5127616;27;20051;-55
2023/07/15 14:25:52;;;;;;;3.35;1.50;;;;;;;;;;5131443;27;20398;-54
2023/07/15 14:28:21;;;;;;;1.88;1.20;;;;;;;;;;5119719;27;20498;-56
2023/07/15 14:30:48;;;;;;;6.00;1.67;;;;;;;;;;5119518;27;20047;-55
2023/07/15 14:33:14;;;;;;;2.70;1.05;;;;;;;;;;5118383;27;20056;-53
2023/07/15 14:35:40;;;;;;;3.50;1.30;;;;;;;;;;5115970;27;20052;-57
2023/07/15 14:38:07;;;;;;;1.40;1.30;;;;;;;;;;5119523;27;20510;-57
2023/07/15 14:40:34;;;;;;;2.50;1.40;;;;;;;;;;5119028;27;20121;-55
2023/07/15 14:43:00;;;;;;;7.18;1.55;;;;;;;;;;5117776;27;20506;-55
2023/07/15 14:45:26;;;;;;;3.28;1.40;;;;;;;;;;5122076;27;20106;-56
2023/07/15 14:47:53;;;;;;;2.45;1.40;;;;;;;;;;5118677;27;20516;-57
2023/07/15 14:50:19;;;;;;;4.28;1.38;;;;;;;;;;5118614;27;20129;-52
2023/07/15 14:52:46;;;;;;;2.08;1.42;;;;;;;;;;5116452;27;20114;-58
2023/07/15 14:55:12;;;;;;;4.00;1.80;;;;;;;;;;5118919;27;20576;-59
2023/07/15 14:57:39;;;;;;;4.47;1.60;;;;;;;;;;5121141;27;20079;-56
2023/07/15 15:00:07;;;;;;;2.53;1.42;;;;;;;;;;5117856;27;20067;-59
2023/07/15 15:02:34;;;;;;;4.50;1.30;;;;;;;;;;5118999;27;20073;-61
2023/07/15 15:05:00;;;;;;;3.03;1.23;;;;;;;;;;5103031;27;20044;-62
2023/07/15 15:07:27;;;;;;;4.03;1.60;;;;;;;;;;5121318;27;20142;-62
2023/07/15 15:09:53;;;;;;;2.10;1.20;;;;;;;;;;5117777;27;20059;-63
2023/07/15 15:12:20;;;;;;;2.50;1.50;;;;;;;;;;5117667;27;20117;-62
2023/07/15 15:14:46;;;;;;;3.10;1.40;;;;;;;;;;5126850;27;20055;-63
2023/07/15 15:17:13;;;;;;;2.92;1.27;;;;;;;;;;5102340;27;20047;-63